Umatilla, Oregon
Current Conditions -  °F | °C
As of 12:53 AM on Sunday 23 Nov 2014 (Local Time) from KHRI Reporting Station
Clear Clear  
Wind Chill: 36°   Ceiling: Unl
Heat Index: 43°   Visibility: 10mi
Dew Point: 32°   Wind: 13mph
Humidity: 65%   Direction: 220°SW
Pressure: 30.16"   Gusts: NA
Location:  45.92°N, 119.34°W
Report Text: KHRI 230853Z AUTO 22011KT 10SM CLR 06/00 A3016 RMK AO2 SLP213 T00610000 51020
Loading
Personal Weather Stations






























Interactive Weather Map New forecast layout! Learn more

10-Day Weather Forecast

Advertisements
Track Severe Weather on mobile